Time;durP1;ratioP1;P1;durP2;ratioP2;P2;SDS_P1;SDS_P2;PMS_P1;PMS_P2;Temp;Humidity;BMP_temperature;BMP_pressure;BME280_temperature;BME280_humidity;BME280_pressure;Samples;Min_cycle;Max_cycle;Signal;HPM_P1;HPM_P2
2023/10/29 00:01:23;;;;;;;0.50;0.50;;;11.20;99.90;;;;;;5085441;28;20093;-68
2023/10/29 00:03:48;;;;;;;0.17;0.17;;;11.20;99.90;;;;;;5085254;28;20032;-67
2023/10/29 00:06:14;;;;;;;0.10;0.10;;;11.30;99.90;;;;;;5085096;28;20084;-66
2023/10/29 00:08:39;;;;;;;0.10;0.10;;;11.30;99.90;;;;;;5085922;28;20056;-67
2023/10/29 00:11:05;;;;;;;0.20;0.10;;;11.30;99.90;;;;;;5117413;28;20039;-66
2023/10/29 00:13:30;;;;;;;0.05;0.05;;;11.30;99.90;;;;;;5101377;28;20055;-67
2023/10/29 00:15:56;;;;;;;0.10;0.10;;;11.30;99.90;;;;;;5073085;28;20493;-67
2023/10/29 00:18:21;;;;;;;0.10;0.10;;;11.30;99.90;;;;;;5083702;28;21804;-66
2023/10/29 00:20:47;;;;;;;0.20;0.10;;;11.30;99.90;;;;;;5084662;28;20036;-67
2023/10/29 00:23:13;;;;;;;0.17;0.15;;;11.30;99.90;;;;;;5084765;28;20036;-67
2023/10/29 00:25:39;;;;;;;0.57;0.57;;;11.40;99.90;;;;;;5079712;28;20601;-67
2023/10/29 00:28:04;;;;;;;2.08;0.43;;;11.40;99.90;;;;;;5087014;28;20046;-67
2023/10/29 00:30:30;;;;;;;0.20;0.20;;;11.40;99.90;;;;;;5080519;28;20054;-67
2023/10/29 00:32:55;;;;;;;1.02;0.40;;;11.40;99.90;;;;;;5081377;28;20066;-67
2023/10/29 00:35:21;;;;;;;0.10;0.10;;;11.40;99.90;;;;;;5082850;28;20039;-67
2023/10/29 00:37:47;;;;;;;0.20;0.20;;;11.40;99.90;;;;;;5081979;28;20043;-67
2023/10/29 00:40:12;;;;;;;0.20;0.20;;;11.40;99.90;;;;;;5113344;28;20075;-67
2023/10/29 00:42:38;;;;;;;0.40;0.40;;;11.50;99.90;;;;;;5082538;28;20063;-67
2023/10/29 00:45:04;;;;;;;0.20;0.20;;;11.50;99.90;;;;;;5082652;28;20054;-68
2023/10/29 00:47:29;;;;;;;0.10;0.10;;;11.50;99.90;;;;;;5079528;28;20051;-67
2023/10/29 00:49:55;;;;;;;0.32;0.32;;;11.60;99.90;;;;;;5084266;28;20031;-67
2023/10/29 00:52:21;;;;;;;0.10;0.10;;;11.60;99.90;;;;;;5080433;28;20036;-67
2023/10/29 00:54:47;;;;;;;0.47;0.28;;;11.60;99.90;;;;;;5083365;28;20043;-68
2023/10/29 00:57:13;;;;;;;0.20;0.20;;;11.60;99.90;;;;;;5080768;28;20554;-67
2023/10/29 00:59:39;;;;;;;0.52;0.20;;;11.60;99.90;;;;;;5102819;28;20047;-67
2023/10/29 01:02:04;;;;;;;0.20;0.20;;;11.60;99.90;;;;;;5083195;28;20482;-68
2023/10/29 01:04:30;;;;;;;0.68;0.17;;;11.60;99.90;;;;;;5082863;28;20085;-68
2023/10/29 01:06:56;;;;;;;0.20;0.20;;;11.70;99.90;;;;;;5083457;28;20036;-68
2023/10/29 01:09:21;;;;;;;0.15;0.15;;;11.70;99.90;;;;;;5085548;28;20063;-68
2023/10/29 01:11:47;;;;;;;0.52;0.40;;;11.70;99.90;;;;;;5088653;27;20051;-68
2023/10/29 01:14:13;;;;;;;0.30;0.08;;;11.70;99.90;;;;;;5087788;28;20035;-68
2023/10/29 01:16:39;;;;;;;0.38;0.38;;;11.80;99.90;;;;;;5087698;28;20151;-69
2023/10/29 01:19:05;;;;;;;0.30;0.30;;;11.80;99.90;;;;;;5089307;28;20057;-68
2023/10/29 01:21:31;;;;;;;0.45;0.45;;;11.80;99.90;;;;;;5088687;28;20035;-68
2023/10/29 01:23:56;;;;;;;0.52;0.30;;;11.80;99.90;;;;;;5087088;28;20039;-67
2023/10/29 01:26:22;;;;;;;0.28;0.20;;;11.80;99.90;;;;;;5072644;28;20050;-68
2023/10/29 01:28:47;;;;;;;0.20;0.20;;;11.80;99.90;;;;;;5119509;27;20035;-67
2023/10/29 01:31:13;;;;;;;0.30;0.30;;;11.90;99.90;;;;;;5087435;28;20478;-67
2023/10/29 01:33:39;;;;;;;0.10;0.10;;;11.90;99.90;;;;;;5120548;27;20479;-67
2023/10/29 01:36:06;;;;;;;0.00;0.00;;;11.90;99.90;;;;;;5089946;28;20040;-67
2023/10/29 01:38:32;;;;;;;0.90;0.32;;;11.90;99.90;;;;;;5087267;28;20067;-69
2023/10/29 01:40:58;;;;;;;0.25;0.25;;;11.90;99.90;;;;;;5118984;27;20467;-69
2023/10/29 01:43:24;;;;;;;0.10;0.10;;;11.90;99.90;;;;;;5086048;28;20047;-70
2023/10/29 01:45:49;;;;;;;0.10;0.10;;;11.90;99.90;;;;;;5119785;27;20126;-67
2023/10/29 01:48:16;;;;;;;0.30;0.30;;;12.00;99.90;;;;;;5084118;28;20119;-68
2023/10/29 01:50:41;;;;;;;0.35;0.35;;;12.00;99.90;;;;;;5080511;28;20069;-69
2023/10/29 01:53:07;;;;;;;0.10;0.10;;;12.00;99.90;;;;;;5081897;28;20597;-67
2023/10/29 01:55:39;;;;;;;0.55;0.55;;;12.00;99.90;;;;;;5084088;28;20043;-69
2023/10/29 01:58:04;;;;;;;0.10;0.10;;;12.00;99.90;;;;;;5081932;28;20074;-69
2023/10/29 02:00:30;;;;;;;0.60;0.30;;;12.10;99.90;;;;;;5077820;28;20384;-68
2023/10/29 02:02:56;;;;;;;0.10;0.10;;;12.10;99.90;;;;;;5116535;27;20538;-68
2023/10/29 02:05:21;;;;;;;0.10;0.10;;;12.10;99.90;;;;;;5082741;28;20452;-67
2023/10/29 02:07:48;;;;;;;0.13;0.13;;;12.10;99.90;;;;;;5117765;27;20050;-67
2023/10/29 02:10:13;;;;;;;0.10;0.10;;;12.10;99.90;;;;;;5085071;28;20031;-68
2023/10/29 02:12:39;;;;;;;0.10;0.10;;;12.10;99.90;;;;;;5085078;28;20092;-68
2023/10/29 02:15:05;;;;;;;0.10;0.10;;;12.10;99.90;;;;;;5087068;28;20038;-68
2023/10/29 02:17:31;;;;;;;0.30;0.30;;;12.00;99.90;;;;;;5088613;28;20045;-70
2023/10/29 02:19:57;;;;;;;0.35;0.35;;;12.00;99.90;;;;;;5119170;27;20501;-68
2023/10/29 02:22:24;;;;;;;0.30;0.20;;;12.00;99.90;;;;;;5086932;27;20068;-68
2023/10/29 02:24:49;;;;;;;0.20;0.20;;;12.00;99.90;;;;;;5082436;28;20046;-69
2023/10/29 02:27:15;;;;;;;0.10;0.10;;;11.90;99.90;;;;;;5085205;28;20394;-68
2023/10/29 02:29:40;;;;;;;0.10;0.10;;;12.00;99.90;;;;;;5087480;28;20058;-67
2023/10/29 02:32:06;;;;;;;0.10;0.10;;;12.00;99.90;;;;;;5084266;28;20047;-68
2023/10/29 02:34:32;;;;;;;0.70;0.35;;;12.00;99.90;;;;;;5087002;28;20112;-68
2023/10/29 02:36:57;;;;;;;0.10;0.10;;;11.90;99.90;;;;;;5085586;28;20039;-68
2023/10/29 02:39:23;;;;;;;0.20;0.20;;;11.90;99.90;;;;;;5069310;28;20119;-68
2023/10/29 02:41:48;;;;;;;0.10;0.10;;;11.90;99.90;;;;;;5070656;28;20063;-68
2023/10/29 02:44:14;;;;;;;0.00;0.00;;;11.80;99.90;;;;;;5086772;28;20074;-69
2023/10/29 02:46:39;;;;;;;0.08;0.08;;;11.80;99.90;;;;;;5085311;28;20035;-68
2023/10/29 02:49:05;;;;;;;0.20;0.20;;;11.90;99.90;;;;;;5083282;28;20039;-68
2023/10/29 02:51:30;;;;;;;0.03;0.03;;;11.90;99.90;;;;;;5087059;28;20072;-69
2023/10/29 02:53:56;;;;;;;0.10;0.10;;;11.90;99.90;;;;;;5084738;28;20227;-69
2023/10/29 02:56:22;;;;;;;0.45;0.10;;;11.90;99.90;;;;;;5069819;28;20384;-69
2023/10/29 02:58:47;;;;;;;0.10;0.10;;;11.90;99.90;;;;;;5115955;27;20038;-69
2023/10/29 03:01:15;;;;;;;0.20;0.20;;;12.00;99.90;;;;;;5086701;28;20643;-70
2023/10/29 03:03:41;;;;;;;0.10;0.10;;;12.00;99.90;;;;;;5113483;27;20067;-69
2023/10/29 03:06:08;;;;;;;0.10;0.10;;;12.10;99.90;;;;;;5120802;27;20122;-68
2023/10/29 03:08:35;;;;;;;0.10;0.10;;;12.10;99.90;;;;;;5090417;28;20043;-70
2023/10/29 03:11:01;;;;;;;0.20;0.20;;;12.10;99.90;;;;;;5083959;28;20510;-69
2023/10/29 03:13:26;;;;;;;0.10;0.10;;;12.10;99.90;;;;;;5074546;28;20028;-70
2023/10/29 03:15:52;;;;;;;0.20;0.20;;;12.20;99.90;;;;;;5073693;28;20487;-70
2023/10/29 03:18:18;;;;;;;0.30;0.30;;;12.20;99.90;;;;;;5090524;28;20036;-70
2023/10/29 03:20:43;;;;;;;0.03;0.03;;;12.20;99.90;;;;;;5084323;28;20257;-72
2023/10/29 03:23:09;;;;;;;0.20;0.20;;;12.30;99.90;;;;;;5091795;28;20037;-69
2023/10/29 03:25:34;;;;;;;0.00;0.00;;;12.40;99.90;;;;;;5091144;28;20039;-68
2023/10/29 03:28:00;;;;;;;0.30;0.30;;;12.40;99.90;;;;;;5086993;28;20044;-69
2023/10/29 03:30:26;;;;;;;0.17;0.17;;;12.30;99.90;;;;;;5072275;28;20042;-69
2023/10/29 03:32:51;;;;;;;0.03;0.03;;;12.30;99.90;;;;;;5110756;27;20122;-69
2023/10/29 03:35:18;;;;;;;0.43;0.30;;;12.30;99.90;;;;;;5092804;28;20063;-70
2023/10/29 03:37:44;;;;;;;0.20;0.20;;;12.30;99.90;;;;;;5091222;28;20050;-69
2023/10/29 03:40:10;;;;;;;0.10;0.10;;;12.30;99.90;;;;;;5077763;28;20391;-69
2023/10/29 03:42:35;;;;;;;0.00;0.00;;;12.30;99.90;;;;;;5084655;28;20039;-71
2023/10/29 03:45:03;;;;;;;0.22;0.22;;;12.30;99.90;;;;;;5085403;28;20039;-69
2023/10/29 03:47:28;;;;;;;0.03;0.03;;;12.40;99.90;;;;;;5078916;28;20046;-70
2023/10/29 03:49:55;;;;;;;0.35;0.35;;;12.40;99.90;;;;;;5118590;27;20032;-71
2023/10/29 03:52:21;;;;;;;0.05;0.05;;;12.50;99.90;;;;;;5117901;27;20405;-71
2023/10/29 03:54:47;;;;;;;0.25;0.20;;;12.50;99.90;;;;;;5081469;28;20059;-68
2023/10/29 03:57:13;;;;;;;0.10;0.10;;;12.50;99.90;;;;;;5088502;28;20035;-69
2023/10/29 03:59:39;;;;;;;0.70;0.70;;;12.50;99.90;;;;;;5089607;28;20040;-71
2023/10/29 04:02:04;;;;;;;0.00;0.00;;;12.60;99.90;;;;;;5079271;28;20059;-69
2023/10/29 04:04:31;;;;;;;0.10;0.10;;;12.60;99.90;;;;;;5080115;28;20050;-71
2023/10/29 04:06:58;;;;;;;0.10;0.10;;;12.50;99.90;;;;;;5121300;28;20278;-71
2023/10/29 04:09:24;;;;;;;0.10;0.10;;;12.60;99.90;;;;;;5081081;28;20040;-69
2023/10/29 04:11:49;;;;;;;0.10;0.10;;;12.60;99.90;;;;;;5080788;28;20560;-70
2023/10/29 04:14:15;;;;;;;0.10;0.10;;;12.50;99.90;;;;;;5086690;28;20051;-69
2023/10/29 04:16:40;;;;;;;0.10;0.10;;;12.60;99.90;;;;;;5067804;28;20035;-71
2023/10/29 04:19:06;;;;;;;0.30;0.30;;;12.60;99.90;;;;;;5082340;28;20040;-70
2023/10/29 04:21:31;;;;;;;0.00;0.00;;;12.60;99.90;;;;;;5084256;28;20048;-71
2023/10/29 04:23:57;;;;;;;0.30;0.30;;;12.60;99.90;;;;;;5066817;28;20071;-69
2023/10/29 04:26:22;;;;;;;0.57;0.38;;;12.50;99.90;;;;;;5083170;28;20050;-70
2023/10/29 04:28:48;;;;;;;0.10;0.10;;;12.40;99.90;;;;;;5084356;28;20031;-69
2023/10/29 04:31:13;;;;;;;0.00;0.00;;;12.20;99.90;;;;;;5082769;28;20102;-68
2023/10/29 04:33:39;;;;;;;0.28;0.28;;;12.00;99.90;;;;;;5082951;28;20039;-70
2023/10/29 04:36:06;;;;;;;0.10;0.10;;;11.90;99.90;;;;;;5083654;28;20035;-70
2023/10/29 04:38:35;;;;;;;0.03;0.03;;;11.90;99.90;;;;;;5112627;27;20035;-68
2023/10/29 04:41:01;;;;;;;0.10;0.10;;;11.90;99.90;;;;;;5078615;28;20051;-68
2023/10/29 04:43:26;;;;;;;0.10;0.10;;;12.00;99.90;;;;;;5085208;28;20043;-68
2023/10/29 04:45:52;;;;;;;0.05;0.05;;;12.00;99.90;;;;;;5083534;27;20050;-68
2023/10/29 04:48:17;;;;;;;0.13;0.13;;;12.00;99.90;;;;;;5084226;27;20474;-69
2023/10/29 04:50:43;;;;;;;0.10;0.10;;;12.00;99.90;;;;;;5069638;28;20074;-69
2023/10/29 04:53:10;;;;;;;0.10;0.10;;;12.10;99.90;;;;;;5088936;28;20047;-68
2023/10/29 04:55:35;;;;;;;0.10;0.10;;;12.20;99.90;;;;;;5088399;27;20054;-69
2023/10/29 04:58:01;;;;;;;0.10;0.10;;;12.20;99.90;;;;;;5090036;27;20074;-68
2023/10/29 05:00:26;;;;;;;0.03;0.03;;;12.30;99.90;;;;;;5122182;27;20068;-70
2023/10/29 05:02:52;;;;;;;0.10;0.10;;;12.30;99.90;;;;;;5085571;28;20318;-70
2023/10/29 05:05:17;;;;;;;0.10;0.10;;;12.40;99.90;;;;;;5086132;28;20063;-69
2023/10/29 05:07:44;;;;;;;0.40;0.40;;;12.40;99.90;;;;;;5081885;28;20112;-70
2023/10/29 05:10:11;;;;;;;0.32;0.30;;;12.50;99.90;;;;;;5088618;28;20559;-69
2023/10/29 05:12:37;;;;;;;2.40;0.30;;;12.50;99.90;;;;;;5085626;27;20118;-69
2023/10/29 05:15:03;;;;;;;0.00;0.00;;;12.50;99.90;;;;;;5086351;27;20039;-69
2023/10/29 05:17:29;;;;;;;0.10;0.10;;;12.50;99.90;;;;;;5085189;27;20039;-68
2023/10/29 05:19:55;;;;;;;0.10;0.10;;;12.60;99.90;;;;;;5101870;27;20482;-68
2023/10/29 05:22:21;;;;;;;0.20;0.20;;;12.60;99.90;;;;;;5081706;27;20087;-69
2023/10/29 05:24:46;;;;;;;0.10;0.10;;;12.60;99.90;;;;;;5087090;27;20031;-69
2023/10/29 05:27:12;;;;;;;0.03;0.03;;;12.60;99.90;;;;;;5085343;28;20047;-70
2023/10/29 05:29:38;;;;;;;1.00;0.20;;;12.70;99.90;;;;;;5090129;28;20482;-69
2023/10/29 05:32:04;;;;;;;0.10;0.10;;;12.70;99.90;;;;;;5083770;28;20046;-69
2023/10/29 05:34:29;;;;;;;0.10;0.10;;;12.70;99.90;;;;;;5080077;28;20091;-69
2023/10/29 05:36:55;;;;;;;0.10;0.10;;;12.70;99.90;;;;;;5083689;28;20553;-70
2023/10/29 05:39:20;;;;;;;0.10;0.10;;;12.70;99.90;;;;;;5071986;27;20043;-69
2023/10/29 05:41:46;;;;;;;0.25;0.25;;;12.70;99.90;;;;;;5082759;28;20051;-69
2023/10/29 05:44:11;;;;;;;1.55;0.32;;;12.70;99.90;;;;;;5086524;28;20040;-70
2023/10/29 05:46:37;;;;;;;0.10;0.10;;;12.70;99.90;;;;;;5086203;28;20040;-69
2023/10/29 05:49:03;;;;;;;0.15;0.10;;;12.70;99.90;;;;;;5089234;28;20057;-69
2023/10/29 05:51:28;;;;;;;0.10;0.10;;;12.70;99.90;;;;;;5085188;28;20044;-69
2023/10/29 05:53:55;;;;;;;0.10;0.10;;;12.70;99.90;;;;;;5084250;27;20032;-69
2023/10/29 05:56:20;;;;;;;0.10;0.10;;;12.70;99.90;;;;;;5084037;28;20039;-70
2023/10/29 05:58:46;;;;;;;1.75;0.20;;;12.70;99.90;;;;;;5085226;28;20047;-68
2023/10/29 06:01:12;;;;;;;0.85;0.20;;;12.70;99.90;;;;;;5083753;28;20031;-69
2023/10/29 06:03:37;;;;;;;0.15;0.15;;;12.60;99.90;;;;;;5120065;27;20066;-70
2023/10/29 06:06:03;;;;;;;0.00;0.00;;;12.60;99.90;;;;;;5066819;28;20039;-69
2023/10/29 06:08:28;;;;;;;0.10;0.10;;;12.60;99.90;;;;;;5103270;27;20067;-69
2023/10/29 06:10:54;;;;;;;0.17;0.17;;;12.60;99.90;;;;;;5085545;28;20031;-69
2023/10/29 06:13:20;;;;;;;0.55;0.55;;;12.50;99.90;;;;;;5085591;28;20023;-69
2023/10/29 06:15:45;;;;;;;0.10;0.10;;;12.60;99.90;;;;;;5086901;28;20047;-70
2023/10/29 06:18:12;;;;;;;0.40;0.40;;;12.60;99.90;;;;;;5085396;28;20066;-70
2023/10/29 06:20:41;;;;;;;0.10;0.10;;;12.60;99.90;;;;;;5115288;27;20042;-69
2023/10/29 06:23:08;;;;;;;0.10;0.10;;;12.70;99.90;;;;;;5115821;27;20043;-69
2023/10/29 06:25:33;;;;;;;0.10;0.10;;;12.70;99.90;;;;;;5086720;28;20043;-68
2023/10/29 06:27:59;;;;;;;0.20;0.20;;;12.70;99.90;;;;;;5084750;28;20036;-69
2023/10/29 06:30:24;;;;;;;0.10;0.10;;;12.70;99.90;;;;;;5089363;28;20046;-70
2023/10/29 06:32:50;;;;;;;0.10;0.10;;;12.70;99.90;;;;;;5085302;28;20062;-70
2023/10/29 06:35:15;;;;;;;0.10;0.10;;;12.70;99.90;;;;;;5090219;28;20067;-69
2023/10/29 06:37:41;;;;;;;0.03;0.03;;;12.70;99.90;;;;;;5086400;27;20101;-69
2023/10/29 06:40:07;;;;;;;0.30;0.30;;;12.70;99.90;;;;;;5085592;28;20042;-69
2023/10/29 06:42:33;;;;;;;0.10;0.10;;;12.70;99.90;;;;;;5085312;27;20074;-69
2023/10/29 06:44:58;;;;;;;0.00;0.00;;;12.60;99.90;;;;;;5068547;28;20067;-69
2023/10/29 06:47:24;;;;;;;0.65;0.45;;;12.60;99.90;;;;;;5086763;27;20031;-72
2023/10/29 06:49:50;;;;;;;0.05;0.05;;;12.60;99.90;;;;;;5078759;28;20101;-68
2023/10/29 06:52:16;;;;;;;0.47;0.47;;;12.60;99.90;;;;;;5098703;27;20069;-71
2023/10/29 06:54:42;;;;;;;0.00;0.00;;;12.60;99.90;;;;;;5082760;28;20526;-71
2023/10/29 06:57:08;;;;;;;0.10;0.10;;;12.60;99.90;;;;;;5086693;28;20039;-69
2023/10/29 06:59:33;;;;;;;2.20;0.30;;;12.60;99.90;;;;;;5090700;28;20039;-70
2023/10/29 07:01:59;;;;;;;0.10;0.10;;;12.50;99.90;;;;;;5099572;28;20040;-70
2023/10/29 07:04:28;;;;;;;0.00;0.00;;;12.50;99.90;;;;;;5090523;28;20043;-73
2023/10/29 07:06:53;;;;;;;0.47;0.20;;;12.50;99.90;;;;;;5088637;28;20071;-72
2023/10/29 07:09:19;;;;;;;0.00;0.00;;;12.50;99.90;;;;;;5092951;28;20078;-70
2023/10/29 07:11:45;;;;;;;0.10;0.10;;;12.50;99.90;;;;;;5087694;28;20027;-69
2023/10/29 07:14:12;;;;;;;0.32;0.20;;;12.50;99.90;;;;;;5090481;28;20035;-71
2023/10/29 07:16:43;;;;;;;0.10;0.10;;;12.60;99.90;;;;;;5087441;28;20043;-71
2023/10/29 07:19:10;;;;;;;0.43;0.30;;;12.60;99.90;;;;;;5126574;27;20043;-72
2023/10/29 07:21:35;;;;;;;0.98;0.30;;;12.60;99.90;;;;;;5088054;28;20075;-68
2023/10/29 07:24:04;;;;;;;0.20;0.20;;;12.70;99.90;;;;;;5091373;28;20065;-70
2023/10/29 07:26:29;;;;;;;0.20;0.10;;;12.70;99.90;;;;;;5089818;28;20036;-71
2023/10/29 07:28:55;;;;;;;0.30;0.30;;;12.70;99.90;;;;;;5088990;28;20054;-70
2023/10/29 07:31:20;;;;;;;0.10;0.10;;;12.70;99.90;;;;;;5084032;28;20028;-72
2023/10/29 07:33:47;;;;;;;0.28;0.28;;;12.60;99.90;;;;;;5075475;28;20134;-73
2023/10/29 07:36:12;;;;;;;0.10;0.10;;;12.70;99.90;;;;;;5089010;28;20110;-70
2023/10/29 07:38:38;;;;;;;0.00;0.00;;;12.70;99.90;;;;;;5085965;28;20122;-69
2023/10/29 07:41:03;;;;;;;0.20;0.20;;;12.70;99.90;;;;;;5082443;28;20043;-70
2023/10/29 07:43:29;;;;;;;1.13;0.30;;;12.70;99.90;;;;;;5123896;27;20031;-71
2023/10/29 07:46:04;;;;;;;0.10;0.10;;;12.70;99.90;;;;;;5090763;28;20423;-71
2023/10/29 07:48:30;;;;;;;0.10;0.10;;;12.70;99.90;;;;;;5115010;27;20104;-74
2023/10/29 07:50:55;;;;;;;0.13;0.13;;;12.70;99.90;;;;;;5088400;28;20564;-76
2023/10/29 07:53:21;;;;;;;0.17;0.10;;;12.70;99.90;;;;;;5072805;28;20632;-70
2023/10/29 07:55:47;;;;;;;0.20;0.10;;;12.60;99.90;;;;;;5088553;28;20042;-73
2023/10/29 07:58:12;;;;;;;0.30;0.30;;;12.60;99.90;;;;;;5089300;28;20043;-71
2023/10/29 08:00:38;;;;;;;0.00;0.00;;;12.70;99.90;;;;;;5088136;28;20042;-73
2023/10/29 08:03:04;;;;;;;0.10;0.10;;;12.60;99.90;;;;;;5074627;28;20048;-73
2023/10/29 08:05:30;;;;;;;0.52;0.52;;;12.60;99.90;;;;;;5087298;28;20236;-70
2023/10/29 08:07:55;;;;;;;0.00;0.00;;;12.60;99.90;;;;;;5090050;28;20130;-72
2023/10/29 08:10:21;;;;;;;0.10;0.10;;;12.60;99.90;;;;;;5089517;28;20038;-70
2023/10/29 08:12:47;;;;;;;0.10;0.10;;;12.60;99.90;;;;;;5088207;28;20071;-71
2023/10/29 08:15:13;;;;;;;0.10;0.10;;;12.60;99.90;;;;;;5066057;28;20090;-71
2023/10/29 08:17:39;;;;;;;0.10;0.10;;;12.60;99.90;;;;;;5083416;28;20501;-70
2023/10/29 08:20:06;;;;;;;0.00;0.00;;;12.60;99.90;;;;;;5092609;28;20035;-72
2023/10/29 08:22:32;;;;;;;0.10;0.10;;;12.60;99.90;;;;;;5085527;28;20772;-69
2023/10/29 08:24:59;;;;;;;0.17;0.17;;;12.60;99.90;;;;;;5088871;28;20040;-72
2023/10/29 08:27:25;;;;;;;0.10;0.10;;;12.70;99.90;;;;;;5089967;28;20402;-71
2023/10/29 08:29:54;;;;;;;0.03;0.03;;;12.70;99.90;;;;;;5124921;27;20118;-70
2023/10/29 08:32:20;;;;;;;0.10;0.10;;;12.70;99.90;;;;;;5086099;27;20036;-72
2023/10/29 08:34:45;;;;;;;0.80;0.17;;;12.80;99.90;;;;;;5087725;28;20099;-70
2023/10/29 08:37:11;;;;;;;0.32;0.32;;;12.80;99.90;;;;;;5116484;27;20043;-70
2023/10/29 08:39:37;;;;;;;0.22;0.22;;;12.80;99.90;;;;;;5086062;28;20454;-70
2023/10/29 08:42:03;;;;;;;0.20;0.20;;;12.80;99.90;;;;;;5086863;28;20047;-71
2023/10/29 08:44:28;;;;;;;0.03;0.03;;;12.80;99.90;;;;;;5089183;28;20119;-73
2023/10/29 08:46:54;;;;;;;0.00;0.00;;;12.90;99.90;;;;;;5083141;28;20032;-71
2023/10/29 08:49:20;;;;;;;0.10;0.10;;;12.90;99.90;;;;;;5086133;27;20073;-70
2023/10/29 08:51:45;;;;;;;0.10;0.10;;;13.00;99.90;;;;;;5080530;28;20043;-74
2023/10/29 08:54:11;;;;;;;0.10;0.10;;;13.10;99.90;;;;;;5089951;27;20035;-71
2023/10/29 08:56:36;;;;;;;0.10;0.10;;;13.10;99.90;;;;;;5087834;28;20039;-71
2023/10/29 08:59:04;;;;;;;0.00;0.00;;;13.10;99.90;;;;;;5081814;28;20131;-69
2023/10/29 09:01:33;;;;;;;0.10;0.10;;;13.20;99.90;;;;;;5081963;27;20048;-71
2023/10/29 09:03:59;;;;;;;0.10;0.10;;;13.10;99.90;;;;;;5081412;28;20039;-74
2023/10/29 09:06:25;;;;;;;0.35;0.35;;;13.10;99.90;;;;;;5087384;28;20035;-70
2023/10/29 09:08:51;;;;;;;0.38;0.10;;;13.10;99.90;;;;;;5085077;28;20032;-72
2023/10/29 09:11:17;;;;;;;0.20;0.20;;;13.10;99.90;;;;;;5086779;27;20031;-71
2023/10/29 09:13:43;;;;;;;0.10;0.10;;;13.20;99.90;;;;;;5086873;28;20525;-75
2023/10/29 09:16:09;;;;;;;0.50;0.50;;;13.20;99.90;;;;;;5072671;27;20039;-73
2023/10/29 09:18:35;;;;;;;0.08;0.08;;;13.20;99.90;;;;;;5081930;28;20050;-72
2023/10/29 09:21:01;;;;;;;0.00;0.00;;;13.30;99.90;;;;;;5086652;28;20044;-71
2023/10/29 09:23:30;;;;;;;0.00;0.00;;;13.30;99.90;;;;;;5082506;27;20409;-72
2023/10/29 09:25:57;;;;;;;0.10;0.10;;;13.30;99.90;;;;;;5117215;27;20055;-70
2023/10/29 09:28:22;;;;;;;0.10;0.10;;;13.30;99.90;;;;;;5082739;28;20054;-72
2023/10/29 09:30:48;;;;;;;0.52;0.52;;;13.30;99.90;;;;;;5114329;27;20471;-73
2023/10/29 09:33:15;;;;;;;0.10;0.10;;;13.20;99.90;;;;;;5086232;28;20602;-72
2023/10/29 09:35:42;;;;;;;0.05;0.05;;;13.20;99.90;;;;;;5087348;28;20229;-74
2023/10/29 09:38:07;;;;;;;1.35;0.38;;;13.20;99.90;;;;;;5118489;27;20072;-72
2023/10/29 09:40:33;;;;;;;0.00;0.00;;;13.20;99.90;;;;;;5081728;28;20498;-78
2023/10/29 09:43:04;;;;;;;0.17;0.10;;;13.20;99.90;;;;;;5077953;28;20036;-70
2023/10/29 09:45:32;;;;;;;0.10;0.10;;;13.30;99.90;;;;;;5113852;27;20036;-74
2023/10/29 09:47:59;;;;;;;0.20;0.20;;;13.30;99.90;;;;;;5118048;27;20038;-71
2023/10/29 09:50:25;;;;;;;0.10;0.10;;;13.50;99.90;;;;;;5084141;27;20093;-73
2023/10/29 09:52:54;;;;;;;0.10;0.10;;;13.60;99.90;;;;;;5085517;27;20032;-71
2023/10/29 09:55:20;;;;;;;0.13;0.13;;;13.70;99.90;;;;;;5077222;27;20508;-70
2023/10/29 09:57:50;;;;;;;0.98;0.68;;;13.80;99.90;;;;;;5079431;28;20043;-69
2023/10/29 10:00:17;;;;;;;0.20;0.20;;;13.80;99.90;;;;;;5112926;27;20036;-72
2023/10/29 10:02:52;;;;;;;0.20;0.20;;;13.80;99.90;;;;;;5094389;28;20040;-69
2023/10/29 10:05:21;;;;;;;0.10;0.10;;;13.70;99.90;;;;;;5110899;27;20095;-72
2023/10/29 10:07:51;;;;;;;0.60;0.60;;;13.60;99.90;;;;;;5119266;27;20490;-75
2023/10/29 10:10:19;;;;;;;0.10;0.10;;;13.60;99.90;;;;;;5123722;27;20088;-71
2023/10/29 10:12:46;;;;;;;0.10;0.10;;;13.70;99.90;;;;;;5084426;28;20116;-70
2023/10/29 10:15:16;;;;;;;0.43;0.00;;;13.80;99.90;;;;;;5094842;27;20074;-74
2023/10/29 10:17:46;;;;;;;1.52;0.80;;;13.80;99.90;;;;;;5074218;28;20032;-73
2023/10/29 10:20:11;;;;;;;0.10;0.10;;;13.80;99.90;;;;;;5123141;27;20424;-71
2023/10/29 10:22:37;;;;;;;0.40;0.40;;;13.80;99.90;;;;;;5087826;27;20039;-74
2023/10/29 10:25:03;;;;;;;4.05;0.52;;;13.80;99.90;;;;;;5085946;28;20375;-72
2023/10/29 10:27:29;;;;;;;0.10;0.10;;;13.70;99.90;;;;;;5087717;28;20035;-71
2023/10/29 10:29:55;;;;;;;0.20;0.20;;;13.70;99.90;;;;;;5090277;28;20032;-74
2023/10/29 10:32:24;;;;;;;0.00;0.00;;;13.60;99.90;;;;;;5079084;28;20039;-74
2023/10/29 10:34:54;;;;;;;0.25;0.20;;;13.60;99.90;;;;;;5125844;27;20865;-71
2023/10/29 10:37:19;;;;;;;0.35;0.30;;;13.60;99.90;;;;;;5088797;28;20447;-70
2023/10/29 10:39:45;;;;;;;0.10;0.10;;;13.60;99.90;;;;;;5090497;28;20039;-74
2023/10/29 10:42:10;;;;;;;0.00;0.00;;;13.70;99.90;;;;;;5085436;28;20047;-72
2023/10/29 10:44:38;;;;;;;0.08;0.08;;;13.80;99.90;;;;;;5084428;28;20490;-70
2023/10/29 10:47:04;;;;;;;0.10;0.10;;;13.80;99.90;;;;;;5077503;28;20047;-74
2023/10/29 10:49:34;;;;;;;0.10;0.10;;;13.90;99.90;;;;;;5084504;28;20031;-71
2023/10/29 10:52:02;;;;;;;0.85;0.10;;;13.80;99.90;;;;;;5109098;27;20045;-74
2023/10/29 10:54:29;;;;;;;1.00;0.25;;;13.80;99.90;;;;;;5083284;28;20097;-70
2023/10/29 10:56:55;;;;;;;0.10;0.10;;;13.80;99.90;;;;;;5093026;28;20043;-71
2023/10/29 10:59:21;;;;;;;0.10;0.10;;;13.70;99.90;;;;;;5089958;28;20172;-69
2023/10/29 11:01:48;;;;;;;0.20;0.20;;;13.70;99.90;;;;;;5089991;27;20027;-69
2023/10/29 11:04:15;;;;;;;0.10;0.10;;;13.70;99.90;;;;;;5095171;27;20031;-72
2023/10/29 11:06:41;;;;;;;0.38;0.20;;;13.80;99.90;;;;;;5115875;27;20027;-73
2023/10/29 11:09:12;;;;;;;0.00;0.00;;;13.80;99.90;;;;;;5084913;28;20043;-71
2023/10/29 11:11:55;;;;;;;3.63;0.35;;;13.90;99.90;;;;;;5081656;27;20035;-71
2023/10/29 11:14:22;;;;;;;0.10;0.10;;;14.00;99.90;;;;;;5080506;27;20048;-70
2023/10/29 11:16:55;;;;;;;0.25;0.20;;;14.20;99.90;;;;;;5093152;27;20035;-71
2023/10/29 11:19:36;;;;;;;0.00;0.00;;;14.20;99.90;;;;;;5084941;27;20042;-71
2023/10/29 11:22:19;;;;;;;0.45;0.45;;;14.20;99.90;;;;;;5088812;27;20094;-72
2023/10/29 11:25:04;;;;;;;0.10;0.10;;;14.20;99.90;;;;;;5082868;28;20065;-73
2023/10/29 11:27:41;;;;;;;0.00;0.00;;;14.10;99.90;;;;;;5087328;28;20115;-78
2023/10/29 11:30:12;;;;;;;0.10;0.10;;;14.00;99.90;;;;;;5083652;28;20028;-71
2023/10/29 11:32:38;;;;;;;0.20;0.20;;;14.00;99.90;;;;;;5087469;28;20040;-71
2023/10/29 11:35:16;;;;;;;0.30;0.30;;;14.00;99.90;;;;;;5085188;28;20054;-71
2023/10/29 11:37:43;;;;;;;0.10;0.10;;;13.90;99.90;;;;;;5083915;27;20489;-72
2023/10/29 11:40:24;;;;;;;0.25;0.20;;;13.90;99.90;;;;;;5108198;27;20410;-71
2023/10/29 11:42:54;;;;;;;0.22;0.22;;;13.90;99.90;;;;;;5090237;28;20172;-72
2023/10/29 11:45:25;;;;;;;0.10;0.10;;;13.90;99.90;;;;;;5084069;28;20073;-70
2023/10/29 11:48:09;;;;;;;0.93;0.60;;;13.90;99.90;;;;;;5084064;28;20047;-71
2023/10/29 11:50:36;;;;;;;3.83;0.20;;;13.90;99.90;;;;;;5094441;27;20496;-68
2023/10/29 11:53:02;;;;;;;0.10;0.10;;;13.90;99.90;;;;;;5083926;28;20063;-74
2023/10/29 11:55:29;;;;;;;0.85;0.85;;;13.80;99.90;;;;;;5078221;28;20043;-72
2023/10/29 11:57:56;;;;;;;0.00;0.00;;;13.90;99.90;;;;;;5082083;28;20085;-71
2023/10/29 12:00:21;;;;;;;0.10;0.10;;;13.80;99.90;;;;;;5083690;28;20119;-69
2023/10/29 12:02:48;;;;;;;0.10;0.10;;;13.80;99.90;;;;;;5100290;27;20556;-71
2023/10/29 12:05:17;;;;;;;0.10;0.10;;;13.80;99.90;;;;;;5090931;28;20043;-72
2023/10/29 12:07:43;;;;;;;0.10;0.10;;;13.80;99.90;;;;;;5111562;28;20065;-71
2023/10/29 12:10:09;;;;;;;0.10;0.10;;;13.90;99.90;;;;;;5083725;28;20055;-71
2023/10/29 12:12:35;;;;;;;0.00;0.00;;;13.90;99.90;;;;;;5083838;28;20040;-71
2023/10/29 12:15:01;;;;;;;0.10;0.10;;;13.80;99.90;;;;;;5115229;28;20040;-72
2023/10/29 12:17:28;;;;;;;0.98;0.82;;;13.90;99.90;;;;;;5068978;28;20040;-72
2023/10/29 12:19:54;;;;;;;0.88;0.65;;;13.90;99.90;;;;;;5075560;28;20052;-69
2023/10/29 12:22:21;;;;;;;4.28;0.77;;;13.80;99.90;;;;;;5090698;28;20086;-70
2023/10/29 12:24:50;;;;;;;0.90;0.35;;;13.80;99.90;;;;;;5087745;28;20123;-71
2023/10/29 12:27:17;;;;;;;0.50;0.50;;;13.80;99.90;;;;;;5120615;28;20186;-69
2023/10/29 12:29:42;;;;;;;0.45;0.35;;;13.80;99.90;;;;;;5072879;28;20058;-69
2023/10/29 12:32:16;;;;;;;0.20;0.20;;;13.80;99.90;;;;;;5070198;28;20044;-69
2023/10/29 12:34:49;;;;;;;0.10;0.10;;;13.70;99.90;;;;;;5118031;28;20036;-69
2023/10/29 12:37:21;;;;;;;0.82;0.70;;;13.80;99.90;;;;;;5083299;28;20117;-69
2023/10/29 12:39:48;;;;;;;0.43;0.32;;;13.70;99.90;;;;;;5086878;28;20122;-70
2023/10/29 12:42:13;;;;;;;0.10;0.10;;;13.70;99.90;;;;;;5078555;28;20051;-70
2023/10/29 12:44:49;;;;;;;0.10;0.10;;;13.70;99.90;;;;;;5078660;28;20040;-69